Time;durP1;ratioP1;P1;durP2;ratioP2;P2;SDS_P1;SDS_P2;PMS_P1;PMS_P2;Temp;Humidity;BMP_temperature;BMP_pressure;BME280_temperature;BME280_humidity;BME280_pressure;Samples;Min_cycle;Max_cycle;Signal;HPM_P1;HPM_P2
2023/10/31 00:01:10;;;;;;;4.63;0.98;;;;;;;;;;4945343;28;20055;-66
2023/10/31 00:03:36;;;;;;;3.30;0.90;;;;;;;;;;4944696;28;20035;-66
2023/10/31 00:06:02;;;;;;;5.65;0.80;;;;;;;;;;4943700;28;20040;-66
2023/10/31 00:08:28;;;;;;;3.45;0.80;;;;;;;;;;4944804;28;20031;-66
2023/10/31 00:10:54;;;;;;;3.13;0.68;;;;;;;;;;4944267;28;20531;-66
2023/10/31 00:13:20;;;;;;;3.40;1.08;;;;;;;;;;4943824;28;20039;-66
2023/10/31 00:15:46;;;;;;;5.35;0.93;;;;;;;;;;4944632;28;20042;-66
2023/10/31 00:18:12;;;;;;;5.05;1.25;;;;;;;;;;4944496;28;20526;-66
2023/10/31 00:20:38;;;;;;;4.65;1.52;;;;;;;;;;4945152;28;20038;-66
2023/10/31 00:23:04;;;;;;;2.88;1.40;;;;;;;;;;4944099;28;20035;-66
2023/10/31 00:25:30;;;;;;;4.70;1.42;;;;;;;;;;4944386;28;20038;-66
2023/10/31 00:27:56;;;;;;;6.80;1.50;;;;;;;;;;4944804;28;20039;-66
2023/10/31 00:30:22;;;;;;;7.30;1.80;;;;;;;;;;4944863;28;20083;-66
2023/10/31 00:32:48;;;;;;;3.38;1.10;;;;;;;;;;4945252;28;20038;-66
2023/10/31 00:35:15;;;;;;;4.15;1.30;;;;;;;;;;4944193;28;20034;-66
2023/10/31 00:37:41;;;;;;;4.43;1.45;;;;;;;;;;4944593;28;20040;-67
2023/10/31 00:40:07;;;;;;;5.47;1.02;;;;;;;;;;4945924;28;20039;-67
2023/10/31 00:42:33;;;;;;;5.03;1.00;;;;;;;;;;4943478;28;20479;-67
2023/10/31 00:45:00;;;;;;;2.55;0.90;;;;;;;;;;4945537;28;20039;-67
2023/10/31 00:47:26;;;;;;;9.80;2.15;;;;;;;;;;4944707;28;20122;-67
2023/10/31 00:49:53;;;;;;;5.18;1.50;;;;;;;;;;4942874;28;20143;-67
2023/10/31 00:52:19;;;;;;;3.60;1.40;;;;;;;;;;4944180;28;20037;-66
2023/10/31 00:54:45;;;;;;;7.47;1.83;;;;;;;;;;4943565;28;20031;-66
2023/10/31 00:57:11;;;;;;;10.52;2.15;;;;;;;;;;4944475;28;20102;-66
2023/10/31 00:59:39;;;;;;;7.95;1.95;;;;;;;;;;4943951;28;20042;-66
2023/10/31 01:02:05;;;;;;;6.15;1.40;;;;;;;;;;4944394;28;20086;-66
2023/10/31 01:04:31;;;;;;;6.78;1.77;;;;;;;;;;4944677;28;20038;-66
2023/10/31 01:06:57;;;;;;;7.30;1.73;;;;;;;;;;4943354;28;20494;-66
2023/10/31 01:09:23;;;;;;;6.50;1.70;;;;;;;;;;4944567;28;20042;-67
2023/10/31 01:11:49;;;;;;;6.05;1.48;;;;;;;;;;4959620;28;21758;-66
2023/10/31 01:14:15;;;;;;;7.63;2.25;;;;;;;;;;4943939;28;20039;-67
2023/10/31 01:16:41;;;;;;;6.30;1.40;;;;;;;;;;4943821;28;20030;-67
2023/10/31 01:19:07;;;;;;;4.95;1.30;;;;;;;;;;4944450;28;20113;-67
2023/10/31 01:21:34;;;;;;;6.25;1.42;;;;;;;;;;4943839;28;20038;-67
2023/10/31 01:24:00;;;;;;;6.15;1.45;;;;;;;;;;4956915;28;20050;-67
2023/10/31 01:26:26;;;;;;;4.15;1.08;;;;;;;;;;4943956;28;20049;-67
2023/10/31 01:28:53;;;;;;;8.02;1.40;;;;;;;;;;4943982;28;20138;-67
2023/10/31 01:31:19;;;;;;;4.63;1.15;;;;;;;;;;4942843;28;20041;-67
2023/10/31 01:33:45;;;;;;;5.00;1.30;;;;;;;;;;4943234;28;20035;-67
2023/10/31 01:36:12;;;;;;;8.13;1.15;;;;;;;;;;4943232;28;20106;-67
2023/10/31 01:38:38;;;;;;;5.50;1.58;;;;;;;;;;4949280;28;20043;-67
2023/10/31 01:41:05;;;;;;;7.07;1.10;;;;;;;;;;4943981;28;20138;-67
2023/10/31 01:43:35;;;;;;;8.43;1.33;;;;;;;;;;4943807;28;20030;-67
2023/10/31 01:46:01;;;;;;;5.97;1.30;;;;;;;;;;4944384;28;21185;-67
2023/10/31 01:48:28;;;;;;;5.57;1.20;;;;;;;;;;4944184;28;20027;-66
2023/10/31 01:50:55;;;;;;;5.45;1.00;;;;;;;;;;4943465;28;20035;-67
2023/10/31 01:53:21;;;;;;;6.63;1.42;;;;;;;;;;4943301;28;20050;-67
2023/10/31 01:55:47;;;;;;;4.97;1.00;;;;;;;;;;4943099;28;20756;-67
2023/10/31 01:58:13;;;;;;;7.82;1.20;;;;;;;;;;4943365;28;20037;-67
2023/10/31 02:00:42;;;;;;;5.55;1.23;;;;;;;;;;4944701;28;22075;-67
2023/10/31 02:03:08;;;;;;;4.18;0.98;;;;;;;;;;4943145;28;20032;-67
2023/10/31 02:05:35;;;;;;;6.80;1.08;;;;;;;;;;4942479;28;20031;-67
2023/10/31 02:08:02;;;;;;;8.98;1.63;;;;;;;;;;4957333;28;20489;-67
2023/10/31 02:10:28;;;;;;;7.22;1.48;;;;;;;;;;4943798;28;20038;-67
2023/10/31 02:12:54;;;;;;;5.45;1.17;;;;;;;;;;4942795;28;20035;-67
2023/10/31 02:15:20;;;;;;;4.28;1.00;;;;;;;;;;4957010;28;20050;-67
2023/10/31 02:17:46;;;;;;;7.60;1.73;;;;;;;;;;4943293;28;20039;-67
2023/10/31 02:20:12;;;;;;;5.63;0.90;;;;;;;;;;4943372;28;20039;-67
2023/10/31 02:22:38;;;;;;;8.05;1.17;;;;;;;;;;4943566;28;20043;-67
2023/10/31 02:25:16;;;;;;;6.32;1.35;;;;;;;;;;4942105;28;20035;-67
2023/10/31 02:27:42;;;;;;;4.47;1.17;;;;;;;;;;4942910;28;20097;-67
2023/10/31 02:30:08;;;;;;;5.65;1.25;;;;;;;;;;4941869;28;20038;-67
2023/10/31 02:32:34;;;;;;;7.25;1.40;;;;;;;;;;4941800;28;20036;-67
2023/10/31 02:35:00;;;;;;;6.07;1.13;;;;;;;;;;4941662;28;20043;-67
2023/10/31 02:37:26;;;;;;;7.15;1.25;;;;;;;;;;4943234;28;20046;-67
2023/10/31 02:39:52;;;;;;;7.05;1.50;;;;;;;;;;4941722;28;20031;-67
2023/10/31 02:42:18;;;;;;;5.82;1.58;;;;;;;;;;4943272;28;20078;-67
2023/10/31 02:44:44;;;;;;;6.75;1.73;;;;;;;;;;4942559;28;20027;-67
2023/10/31 02:47:10;;;;;;;7.25;2.05;;;;;;;;;;4942681;28;20097;-67
2023/10/31 02:49:36;;;;;;;7.60;1.80;;;;;;;;;;4942720;28;20047;-67
2023/10/31 02:52:02;;;;;;;10.13;1.73;;;;;;;;;;4943145;28;20031;-68
2023/10/31 02:54:28;;;;;;;8.32;2.03;;;;;;;;;;4942223;28;20031;-68
2023/10/31 02:56:54;;;;;;;8.60;1.65;;;;;;;;;;4942544;28;20035;-67
2023/10/31 02:59:20;;;;;;;8.48;1.67;;;;;;;;;;4941387;28;20031;-67
2023/10/31 03:01:46;;;;;;;6.68;2.00;;;;;;;;;;4941899;28;20055;-67
2023/10/31 03:04:13;;;;;;;5.53;1.75;;;;;;;;;;4942055;28;20035;-67
2023/10/31 03:06:39;;;;;;;7.57;2.15;;;;;;;;;;4942326;28;20410;-67
2023/10/31 03:09:05;;;;;;;8.82;2.00;;;;;;;;;;4942900;28;22151;-67
2023/10/31 03:11:32;;;;;;;9.65;2.10;;;;;;;;;;4942236;28;20027;-67
2023/10/31 03:13:58;;;;;;;7.82;1.98;;;;;;;;;;4956171;28;20035;-67
2023/10/31 03:16:24;;;;;;;8.85;2.05;;;;;;;;;;4943345;28;20034;-67
2023/10/31 03:18:51;;;;;;;5.65;2.17;;;;;;;;;;4940772;28;20031;-67
2023/10/31 03:21:17;;;;;;;5.85;2.17;;;;;;;;;;4942535;28;20929;-67
2023/10/31 03:23:46;;;;;;;7.70;2.47;;;;;;;;;;4941548;28;20035;-67
2023/10/31 03:26:12;;;;;;;9.52;2.40;;;;;;;;;;4942568;28;20568;-67
2023/10/31 03:28:38;;;;;;;7.60;2.47;;;;;;;;;;4941365;28;20657;-67
2023/10/31 03:31:05;;;;;;;9.30;2.45;;;;;;;;;;4941576;28;20770;-67
2023/10/31 03:33:31;;;;;;;5.40;2.30;;;;;;;;;;4956577;28;20059;-67
2023/10/31 03:35:57;;;;;;;9.23;2.53;;;;;;;;;;4941484;28;20049;-67
2023/10/31 03:38:23;;;;;;;7.53;2.65;;;;;;;;;;4941917;28;20131;-67
2023/10/31 03:40:50;;;;;;;7.68;2.30;;;;;;;;;;4956227;28;20027;-67
2023/10/31 03:43:16;;;;;;;11.30;2.50;;;;;;;;;;4942304;28;20031;-67
2023/10/31 03:45:42;;;;;;;9.00;2.47;;;;;;;;;;4945307;28;20034;-67
2023/10/31 03:48:08;;;;;;;6.60;2.28;;;;;;;;;;4944509;28;20098;-67
2023/10/31 03:50:34;;;;;;;8.35;2.42;;;;;;;;;;4944782;28;20046;-67
2023/10/31 03:53:00;;;;;;;7.93;2.20;;;;;;;;;;4945490;28;20031;-67
2023/10/31 03:55:26;;;;;;;10.85;2.10;;;;;;;;;;4944886;28;20980;-67
2023/10/31 03:57:52;;;;;;;4.63;1.98;;;;;;;;;;4944932;28;20771;-67
2023/10/31 04:00:18;;;;;;;7.22;1.98;;;;;;;;;;4943832;28;20081;-67
2023/10/31 04:02:44;;;;;;;7.57;2.50;;;;;;;;;;4945014;28;20126;-66
2023/10/31 04:05:10;;;;;;;4.47;2.00;;;;;;;;;;4944056;28;20066;-67
2023/10/31 04:07:36;;;;;;;5.57;2.45;;;;;;;;;;4945414;28;20827;-66
2023/10/31 04:10:02;;;;;;;7.25;2.17;;;;;;;;;;4944594;28;20130;-67
2023/10/31 04:12:28;;;;;;;5.25;1.77;;;;;;;;;;4944557;28;20039;-66
2023/10/31 04:14:54;;;;;;;5.07;1.70;;;;;;;;;;4944685;28;20031;-67
2023/10/31 04:17:20;;;;;;;6.22;1.98;;;;;;;;;;4959699;28;20035;-67
2023/10/31 04:19:46;;;;;;;5.60;2.03;;;;;;;;;;4943919;28;20031;-67
2023/10/31 04:22:13;;;;;;;6.72;2.35;;;;;;;;;;4943533;28;20030;-67
2023/10/31 04:24:39;;;;;;;6.75;2.10;;;;;;;;;;4945539;28;20047;-67
2023/10/31 04:27:05;;;;;;;6.15;1.80;;;;;;;;;;4943886;28;20042;-67
2023/10/31 04:29:31;;;;;;;5.32;1.70;;;;;;;;;;4943192;28;20027;-67
2023/10/31 04:31:57;;;;;;;7.28;2.05;;;;;;;;;;4944332;28;20035;-66
2023/10/31 04:34:23;;;;;;;7.35;2.17;;;;;;;;;;4945332;28;20043;-67
2023/10/31 04:36:49;;;;;;;5.20;1.90;;;;;;;;;;4944598;28;21352;-67
2023/10/31 04:39:16;;;;;;;6.10;1.77;;;;;;;;;;4943531;28;20043;-67
2023/10/31 04:41:42;;;;;;;4.60;1.90;;;;;;;;;;4943705;28;20031;-67
2023/10/31 04:44:08;;;;;;;4.95;1.55;;;;;;;;;;4949947;28;20043;-66
2023/10/31 04:46:34;;;;;;;7.13;1.80;;;;;;;;;;4944019;28;20035;-67
2023/10/31 04:49:00;;;;;;;5.53;1.60;;;;;;;;;;4944523;28;20145;-67
2023/10/31 04:51:26;;;;;;;5.35;1.30;;;;;;;;;;4943730;28;20027;-66
2023/10/31 04:53:52;;;;;;;6.88;1.67;;;;;;;;;;4943590;28;20529;-67
2023/10/31 04:56:18;;;;;;;4.70;1.10;;;;;;;;;;4942731;28;20037;-68
2023/10/31 04:58:44;;;;;;;5.38;1.20;;;;;;;;;;4943408;28;20608;-67
2023/10/31 05:01:12;;;;;;;6.22;1.10;;;;;;;;;;4943835;28;20085;-67
2023/10/31 05:03:38;;;;;;;3.70;1.10;;;;;;;;;;4944321;28;20073;-68
2023/10/31 05:06:04;;;;;;;3.53;1.10;;;;;;;;;;4943684;28;20738;-67
2023/10/31 05:08:31;;;;;;;5.40;1.40;;;;;;;;;;4944006;28;20027;-66
2023/10/31 05:10:57;;;;;;;1.73;0.70;;;;;;;;;;4942656;28;20031;-67
2023/10/31 05:13:23;;;;;;;5.15;0.93;;;;;;;;;;4945228;28;20130;-67
2023/10/31 05:15:50;;;;;;;3.92;1.02;;;;;;;;;;4943134;28;20034;-67
2023/10/31 05:18:17;;;;;;;6.03;1.73;;;;;;;;;;4944237;28;20038;-67
2023/10/31 05:20:43;;;;;;;1.10;0.55;;;;;;;;;;4943644;28;20035;-66
2023/10/31 05:23:09;;;;;;;1.42;0.60;;;;;;;;;;4944038;28;20423;-66
2023/10/31 05:25:36;;;;;;;2.25;0.60;;;;;;;;;;4942965;28;20033;-67
2023/10/31 05:28:02;;;;;;;1.52;0.60;;;;;;;;;;4943918;28;20122;-67
2023/10/31 05:30:28;;;;;;;4.30;0.80;;;;;;;;;;4942081;28;20049;-67
2023/10/31 05:32:54;;;;;;;2.88;0.50;;;;;;;;;;4944003;28;20035;-66
2023/10/31 05:35:21;;;;;;;2.60;0.90;;;;;;;;;;4943332;28;21852;-66
2023/10/31 05:37:47;;;;;;;4.57;1.25;;;;;;;;;;4943657;28;20050;-66
2023/10/31 05:40:13;;;;;;;4.53;0.90;;;;;;;;;;4943398;28;20530;-67
2023/10/31 05:42:40;;;;;;;3.50;0.70;;;;;;;;;;4942953;28;20031;-66
2023/10/31 05:45:06;;;;;;;2.78;0.80;;;;;;;;;;4944014;28;21793;-67
2023/10/31 05:47:35;;;;;;;3.58;0.90;;;;;;;;;;4941954;28;20794;-67
2023/10/31 05:50:01;;;;;;;6.60;1.52;;;;;;;;;;4944477;28;20046;-67
2023/10/31 05:52:31;;;;;;;5.97;1.00;;;;;;;;;;4942774;28;20054;-67
2023/10/31 05:54:57;;;;;;;2.80;0.82;;;;;;;;;;4943225;28;20129;-67
2023/10/31 05:57:23;;;;;;;2.50;0.90;;;;;;;;;;4942914;28;20045;-68
2023/10/31 05:59:49;;;;;;;2.50;0.90;;;;;;;;;;4942691;28;20902;-67
2023/10/31 06:02:16;;;;;;;1.65;0.90;;;;;;;;;;4942804;28;20027;-68
2023/10/31 06:04:42;;;;;;;4.65;0.95;;;;;;;;;;4943804;28;20035;-68
2023/10/31 06:07:08;;;;;;;2.63;0.77;;;;;;;;;;4942967;28;20707;-68
2023/10/31 06:09:34;;;;;;;3.35;1.13;;;;;;;;;;4943214;28;20027;-68
2023/10/31 06:12:00;;;;;;;6.05;1.10;;;;;;;;;;4942285;28;20038;-68
2023/10/31 06:14:26;;;;;;;5.30;1.20;;;;;;;;;;4943799;28;20995;-68
2023/10/31 06:16:53;;;;;;;4.30;0.98;;;;;;;;;;4942060;28;20569;-68
2023/10/31 06:19:19;;;;;;;5.25;1.25;;;;;;;;;;4943192;28;20023;-67
2023/10/31 06:21:45;;;;;;;5.10;1.10;;;;;;;;;;4942698;28;20034;-67
2023/10/31 06:24:11;;;;;;;6.93;1.48;;;;;;;;;;4957345;28;20096;-67
2023/10/31 06:26:38;;;;;;;4.95;1.27;;;;;;;;;;4942981;28;20028;-67
2023/10/31 06:29:04;;;;;;;3.33;1.20;;;;;;;;;;4942045;28;20034;-67
2023/10/31 06:31:30;;;;;;;7.25;1.85;;;;;;;;;;4943039;28;20044;-67
2023/10/31 06:33:56;;;;;;;4.55;1.48;;;;;;;;;;4943134;28;20131;-67
2023/10/31 06:36:22;;;;;;;4.13;1.58;;;;;;;;;;4942065;28;20035;-67
2023/10/31 06:38:48;;;;;;;3.15;1.55;;;;;;;;;;4941708;28;20041;-67
2023/10/31 06:41:15;;;;;;;6.88;2.33;;;;;;;;;;4943706;28;20028;-67
2023/10/31 06:43:41;;;;;;;4.35;1.40;;;;;;;;;;4942577;28;20260;-67
2023/10/31 06:46:07;;;;;;;4.45;1.60;;;;;;;;;;4943041;28;20039;-67
2023/10/31 06:48:33;;;;;;;6.18;2.15;;;;;;;;;;4942794;28;20059;-67
2023/10/31 06:51:00;;;;;;;5.90;1.77;;;;;;;;;;4941915;28;20031;-68
2023/10/31 06:53:26;;;;;;;4.80;1.67;;;;;;;;;;4956094;28;20035;-67
2023/10/31 06:55:52;;;;;;;3.40;1.65;;;;;;;;;;4942155;28;20761;-67
2023/10/31 06:58:18;;;;;;;8.60;2.33;;;;;;;;;;4942686;28;21013;-67
2023/10/31 07:00:44;;;;;;;6.10;1.55;;;;;;;;;;4942977;28;20738;-68
2023/10/31 07:03:14;;;;;;;9.93;1.95;;;;;;;;;;4942599;28;20035;-67
2023/10/31 07:05:40;;;;;;;4.95;1.70;;;;;;;;;;4942609;28;20123;-68
2023/10/31 07:08:06;;;;;;;5.25;1.90;;;;;;;;;;4942115;28;20035;-67
2023/10/31 07:10:33;;;;;;;4.38;1.88;;;;;;;;;;4944322;28;20031;-67
2023/10/31 07:12:59;;;;;;;6.60;2.28;;;;;;;;;;4942045;28;21008;-67
2023/10/31 07:15:25;;;;;;;6.95;2.40;;;;;;;;;;4942722;28;20027;-67
2023/10/31 07:17:51;;;;;;;5.00;2.10;;;;;;;;;;4943023;28;20039;-67
2023/10/31 07:20:18;;;;;;;7.78;2.60;;;;;;;;;;4946523;28;20045;-67
2023/10/31 07:22:44;;;;;;;7.80;2.58;;;;;;;;;;4947046;28;20031;-67
2023/10/31 07:25:10;;;;;;;7.80;2.30;;;;;;;;;;4946185;28;20031;-67
2023/10/31 07:27:36;;;;;;;7.28;2.10;;;;;;;;;;4945086;28;20034;-67
2023/10/31 07:30:06;;;;;;;5.38;2.03;;;;;;;;;;4946315;28;20034;-67
2023/10/31 07:32:32;;;;;;;6.00;1.88;;;;;;;;;;4945153;28;20557;-67
2023/10/31 07:34:58;;;;;;;3.88;1.77;;;;;;;;;;4945958;28;20030;-67
2023/10/31 07:37:24;;;;;;;7.55;1.73;;;;;;;;;;4945963;28;20031;-67
2023/10/31 07:39:50;;;;;;;7.05;1.90;;;;;;;;;;4946409;28;20039;-67
2023/10/31 07:42:17;;;;;;;6.53;1.60;;;;;;;;;;4946534;28;20042;-67
2023/10/31 07:44:43;;;;;;;9.45;2.13;;;;;;;;;;4945608;28;20039;-67
2023/10/31 07:47:09;;;;;;;4.45;1.08;;;;;;;;;;4943815;28;20185;-67
2023/10/31 07:49:35;;;;;;;3.97;1.02;;;;;;;;;;4946406;28;20031;-67
2023/10/31 07:52:01;;;;;;;4.68;1.27;;;;;;;;;;4946402;28;20039;-67
2023/10/31 07:54:27;;;;;;;3.13;1.00;;;;;;;;;;4943969;28;20035;-67
2023/10/31 07:56:55;;;;;;;4.10;0.93;;;;;;;;;;4946165;28;20035;-67
2023/10/31 07:59:21;;;;;;;6.13;1.08;;;;;;;;;;4944077;28;20035;-67
2023/10/31 08:01:48;;;;;;;4.35;1.27;;;;;;;;;;4945710;28;20047;-67
2023/10/31 08:04:16;;;;;;;4.38;1.10;;;;;;;;;;4945159;28;20142;-67
2023/10/31 08:06:42;;;;;;;3.80;0.77;;;;;;;;;;4942804;28;20023;-67
2023/10/31 08:09:08;;;;;;;3.80;1.02;;;;;;;;;;4945217;28;20145;-67
2023/10/31 08:11:35;;;;;;;5.70;1.20;;;;;;;;;;4946338;28;20114;-67
2023/10/31 08:14:01;;;;;;;6.57;0.82;;;;;;;;;;4937548;28;20882;-67
2023/10/31 08:16:28;;;;;;;4.90;1.02;;;;;;;;;;4936446;28;20549;-67
2023/10/31 08:18:54;;;;;;;3.38;0.70;;;;;;;;;;4936738;28;20034;-67
2023/10/31 08:21:20;;;;;;;5.57;0.70;;;;;;;;;;4937719;28;21500;-66
2023/10/31 08:23:46;;;;;;;2.80;0.60;;;;;;;;;;4938717;28;21241;-67
2023/10/31 08:26:13;;;;;;;4.32;1.13;;;;;;;;;;4938355;28;21679;-67
2023/10/31 08:28:39;;;;;;;1.88;0.60;;;;;;;;;;4938560;28;20438;-67
2023/10/31 08:31:05;;;;;;;2.10;0.65;;;;;;;;;;4935950;28;20031;-67
2023/10/31 08:33:31;;;;;;;3.47;0.70;;;;;;;;;;4937690;28;20556;-67
2023/10/31 08:35:57;;;;;;;3.13;0.60;;;;;;;;;;4938461;28;20065;-67
2023/10/31 08:38:23;;;;;;;7.25;0.90;;;;;;;;;;4937698;28;20039;-67
2023/10/31 08:40:49;;;;;;;6.78;0.82;;;;;;;;;;4937540;28;20513;-67
2023/10/31 08:43:15;;;;;;;7.20;0.95;;;;;;;;;;4937566;28;20175;-66
2023/10/31 08:45:41;;;;;;;8.63;1.10;;;;;;;;;;4937754;28;20034;-68
2023/10/31 08:48:09;;;;;;;11.98;1.75;;;;;;;;;;4938425;28;20022;-67
2023/10/31 08:50:35;;;;;;;10.23;1.30;;;;;;;;;;4936124;28;20035;-67
2023/10/31 08:53:01;;;;;;;12.00;1.50;;;;;;;;;;4937281;28;20033;-66
2023/10/31 08:55:27;;;;;;;8.70;1.23;;;;;;;;;;4937220;28;21976;-67
2023/10/31 08:57:53;;;;;;;7.95;1.15;;;;;;;;;;4937146;28;20035;-67
2023/10/31 09:00:19;;;;;;;8.18;1.20;;;;;;;;;;4937265;28;20047;-67
2023/10/31 09:02:45;;;;;;;7.03;1.10;;;;;;;;;;4936384;28;20491;-66
2023/10/31 09:05:11;;;;;;;3.25;0.70;;;;;;;;;;4937486;28;21830;-66
2023/10/31 09:07:37;;;;;;;8.70;1.10;;;;;;;;;;4938046;28;21694;-66
2023/10/31 09:10:05;;;;;;;9.38;1.05;;;;;;;;;;4937367;28;20739;-67
2023/10/31 09:12:31;;;;;;;5.47;0.77;;;;;;;;;;4936347;28;20037;-66
2023/10/31 09:14:57;;;;;;;4.28;0.68;;;;;;;;;;4936525;28;20066;-66
2023/10/31 09:17:23;;;;;;;4.05;0.88;;;;;;;;;;4936478;28;20043;-67
2023/10/31 09:19:49;;;;;;;7.28;0.77;;;;;;;;;;4935521;28;20027;-66
2023/10/31 09:22:16;;;;;;;5.60;0.75;;;;;;;;;;4949279;28;20050;-66
2023/10/31 09:24:43;;;;;;;7.47;1.00;;;;;;;;;;4935595;28;21026;-66
2023/10/31 09:27:10;;;;;;;8.05;0.80;;;;;;;;;;4936474;28;20051;-66
2023/10/31 09:29:36;;;;;;;5.47;1.05;;;;;;;;;;4934981;28;20031;-66
2023/10/31 09:32:03;;;;;;;2.78;0.50;;;;;;;;;;4933907;28;20031;-66
2023/10/31 09:34:29;;;;;;;5.72;0.75;;;;;;;;;;4935613;28;20027;-66
2023/10/31 09:36:55;;;;;;;6.28;0.65;;;;;;;;;;4935365;28;20134;-66
2023/10/31 09:39:22;;;;;;;5.18;0.75;;;;;;;;;;4936110;28;20135;-66
2023/10/31 09:41:49;;;;;;;5.03;0.75;;;;;;;;;;4936312;28;20067;-66
2023/10/31 09:44:15;;;;;;;6.55;1.27;;;;;;;;;;4935051;28;20035;-66
2023/10/31 09:46:41;;;;;;;7.50;0.93;;;;;;;;;;4935581;28;20026;-66
2023/10/31 09:49:08;;;;;;;5.63;1.20;;;;;;;;;;4934522;28;20721;-66
2023/10/31 09:51:34;;;;;;;6.97;0.88;;;;;;;;;;4934683;28;20031;-66
2023/10/31 09:54:03;;;;;;;8.70;1.50;;;;;;;;;;4933357;28;20462;-66
2023/10/31 09:56:34;;;;;;;5.35;0.80;;;;;;;;;;4934035;28;20034;-66
2023/10/31 09:59:05;;;;;;;7.88;1.02;;;;;;;;;;4935211;28;20050;-66
2023/10/31 10:01:31;;;;;;;6.10;0.95;;;;;;;;;;4935212;28;20134;-66
2023/10/31 10:03:57;;;;;;;5.15;0.70;;;;;;;;;;4934871;28;20039;-66
2023/10/31 10:06:23;;;;;;;4.97;0.93;;;;;;;;;;4931870;28;20430;-66
2023/10/31 10:08:50;;;;;;;4.03;0.93;;;;;;;;;;4934467;28;20035;-66
2023/10/31 10:11:16;;;;;;;6.22;0.88;;;;;;;;;;4933953;28;20121;-66
2023/10/31 10:13:42;;;;;;;9.05;0.60;;;;;;;;;;4935142;28;20035;-66
2023/10/31 10:16:10;;;;;;;5.00;0.77;;;;;;;;;;4935539;28;20730;-66
2023/10/31 10:18:40;;;;;;;4.30;0.68;;;;;;;;;;4936032;28;20038;-66
2023/10/31 10:21:06;;;;;;;4.28;0.70;;;;;;;;;;4936042;28;20684;-66
2023/10/31 10:23:33;;;;;;;3.72;0.70;;;;;;;;;;4934535;28;20038;-66
2023/10/31 10:26:00;;;;;;;6.40;0.73;;;;;;;;;;4935595;28;20035;-66
2023/10/31 10:28:26;;;;;;;8.05;1.02;;;;;;;;;;4935547;28;20026;-66
2023/10/31 10:30:53;;;;;;;12.38;1.00;;;;;;;;;;4935278;28;20030;-66
2023/10/31 10:33:19;;;;;;;4.78;0.85;;;;;;;;;;4935023;28;20030;-65
2023/10/31 10:35:45;;;;;;;4.68;1.05;;;;;;;;;;4935306;28;20039;-66
2023/10/31 10:38:20;;;;;;;7.03;1.17;;;;;;;;;;4935940;28;20077;-66
2023/10/31 10:40:48;;;;;;;5.45;0.88;;;;;;;;;;4935435;28;20035;-66
2023/10/31 10:43:14;;;;;;;4.25;0.65;;;;;;;;;;4935143;28;20148;-65
2023/10/31 10:45:43;;;;;;;5.53;1.13;;;;;;;;;;4935295;28;20118;-66
2023/10/31 10:48:13;;;;;;;5.25;0.90;;;;;;;;;;4935509;28;20150;-66
2023/10/31 10:50:42;;;;;;;6.03;0.88;;;;;;;;;;4935376;28;20058;-66
2023/10/31 10:53:10;;;;;;;5.75;1.40;;;;;;;;;;4937087;28;20037;-65
2023/10/31 10:55:40;;;;;;;9.35;0.90;;;;;;;;;;4938695;28;20030;-66
2023/10/31 10:58:09;;;;;;;4.10;0.82;;;;;;;;;;4939220;28;20752;-66
2023/10/31 11:00:35;;;;;;;6.40;1.00;;;;;;;;;;4938501;28;20054;-66
2023/10/31 11:03:01;;;;;;;5.50;0.80;;;;;;;;;;4938391;28;20031;-65
2023/10/31 11:05:28;;;;;;;3.88;0.55;;;;;;;;;;4939563;28;20118;-66
2023/10/31 11:07:57;;;;;;;7.43;1.23;;;;;;;;;;4939816;28;20090;-65
2023/10/31 11:10:23;;;;;;;7.32;0.95;;;;;;;;;;4939980;28;20046;-66
2023/10/31 11:12:50;;;;;;;3.63;0.88;;;;;;;;;;4938794;28;20035;-66
2023/10/31 11:15:17;;;;;;;7.22;1.27;;;;;;;;;;4939124;28;20043;-66
2023/10/31 11:17:44;;;;;;;4.00;0.80;;;;;;;;;;4934971;28;20047;-65
2023/10/31 11:20:11;;;;;;;5.97;0.88;;;;;;;;;;4939009;28;20031;-66
2023/10/31 11:22:38;;;;;;;5.90;0.80;;;;;;;;;;4939408;28;20772;-65
2023/10/31 11:25:05;;;;;;;6.45;0.90;;;;;;;;;;4939260;28;20762;-65
2023/10/31 11:27:35;;;;;;;3.45;0.73;;;;;;;;;;4939248;28;20141;-65
2023/10/31 11:30:01;;;;;;;5.72;0.75;;;;;;;;;;4939791;28;20035;-66
2023/10/31 11:32:27;;;;;;;7.32;1.10;;;;;;;;;;4939343;28;20027;-65
2023/10/31 11:34:53;;;;;;;6.60;1.10;;;;;;;;;;4938530;28;20031;-65
2023/10/31 11:37:19;;;;;;;5.63;1.13;;;;;;;;;;4939533;28;21060;-65
2023/10/31 11:40:04;;;;;;;13.93;1.63;;;;;;;;;;4937773;28;20675;-65
2023/10/31 11:42:33;;;;;;;7.32;1.20;;;;;;;;;;4939504;28;20039;-65
2023/10/31 11:45:00;;;;;;;5.10;0.90;;;;;;;;;;4938967;28;20028;-66
2023/10/31 11:47:26;;;;;;;11.80;1.38;;;;;;;;;;4938453;28;20771;-65
2023/10/31 11:49:52;;;;;;;9.98;1.27;;;;;;;;;;4939303;28;20650;-65
2023/10/31 11:52:18;;;;;;;7.72;1.33;;;;;;;;;;4937817;28;20026;-65
2023/10/31 11:54:44;;;;;;;9.13;1.08;;;;;;;;;;4938444;28;20115;-65
2023/10/31 11:57:11;;;;;;;6.50;1.45;;;;;;;;;;4953267;28;21733;-65
2023/10/31 11:59:40;;;;;;;7.45;1.63;;;;;;;;;;4938074;28;20043;-65
2023/10/31 12:02:16;;;;;;;9.20;1.30;;;;;;;;;;4928747;28;20062;-65
2023/10/31 12:04:42;;;;;;;9.77;1.10;;;;;;;;;;4932545;28;20043;-65
2023/10/31 12:07:09;;;;;;;9.23;1.48;;;;;;;;;;4932475;28;20039;-65
2023/10/31 12:09:46;;;;;;;9.98;1.40;;;;;;;;;;4933360;28;20038;-65
2023/10/31 12:12:12;;;;;;;17.05;1.67;;;;;;;;;;4932813;28;20031;-65
2023/10/31 12:14:39;;;;;;;7.75;1.08;;;;;;;;;;4932171;28;20035;-65
2023/10/31 12:17:06;;;;;;;7.55;0.98;;;;;;;;;;4932821;28;20036;-65
2023/10/31 12:19:33;;;;;;;7.85;1.40;;;;;;;;;;4932829;28;20034;-65
2023/10/31 12:21:59;;;;;;;8.82;1.23;;;;;;;;;;4932803;28;20771;-65
2023/10/31 12:24:25;;;;;;;9.27;1.17;;;;;;;;;;4931522;28;21116;-65
2023/10/31 12:26:51;;;;;;;8.57;1.25;;;;;;;;;;4932360;28;20045;-65
2023/10/31 12:29:21;;;;;;;8.23;1.10;;;;;;;;;;4931668;28;20046;-65
2023/10/31 12:31:48;;;;;;;8.52;1.40;;;;;;;;;;4932301;28;20133;-65
2023/10/31 12:34:15;;;;;;;6.15;0.95;;;;;;;;;;4932334;28;20085;-65
2023/10/31 12:36:41;;;;;;;9.27;1.65;;;;;;;;;;4932557;28;20122;-65
2023/10/31 12:39:10;;;;;;;7.85;1.70;;;;;;;;;;4932072;28;20119;-65
2023/10/31 12:41:37;;;;;;;6.10;0.90;;;;;;;;;;4931259;28;20074;-65
2023/10/31 12:44:04;;;;;;;5.47;1.00;;;;;;;;;;4930739;28;20660;-65
2023/10/31 12:46:35;;;;;;;7.05;1.38;;;;;;;;;;4931807;28;20046;-65
2023/10/31 12:49:01;;;;;;;11.48;1.60;;;;;;;;;;4932227;28;21002;-65
2023/10/31 12:51:27;;;;;;;9.57;1.70;;;;;;;;;;4927885;28;20069;-65
2023/10/31 12:53:53;;;;;;;8.98;1.52;;;;;;;;;;4928748;28;21597;-65
2023/10/31 12:56:42;;;;;;;4.30;0.90;;;;;;;;;;4927144;28;20154;-65
2023/10/31 12:59:12;;;;;;;9.40;1.75;;;;;;;;;;4930064;28;20088;-65
2023/10/31 13:01:43;;;;;;;7.10;1.05;;;;;;;;;;4932178;28;21757;-65
2023/10/31 13:04:11;;;;;;;9.63;1.42;;;;;;;;;;4930647;28;21143;-65
2023/10/31 13:06:38;;;;;;;8.45;1.42;;;;;;;;;;4931469;28;20134;-65
2023/10/31 13:09:11;;;;;;;8.30;1.30;;;;;;;;;;4931517;28;20135;-65
2023/10/31 13:11:40;;;;;;;8.65;1.35;;;;;;;;;;4930433;28;20174;-65
2023/10/31 13:14:06;;;;;;;7.30;1.02;;;;;;;;;;4930572;28;20661;-65
2023/10/31 13:16:33;;;;;;;7.30;1.33;;;;;;;;;;4928053;28;20042;-65
2023/10/31 13:18:59;;;;;;;5.65;1.02;;;;;;;;;;4930832;28;20068;-65
2023/10/31 13:21:26;;;;;;;7.63;1.20;;;;;;;;;;4929335;28;20039;-65
2023/10/31 13:23:52;;;;;;;8.15;0.82;;;;;;;;;;4930148;28;20035;-65
2023/10/31 13:26:18;;;;;;;7.00;1.27;;;;;;;;;;4930274;28;20565;-65
2023/10/31 13:28:44;;;;;;;9.95;1.40;;;;;;;;;;4931859;28;20027;-65
2023/10/31 13:31:11;;;;;;;2.28;0.90;;;;;;;;;;4930495;28;21191;-65
2023/10/31 13:33:37;;;;;;;7.43;1.08;;;;;;;;;;4931272;28;20039;-65
2023/10/31 13:36:04;;;;;;;7.88;1.23;;;;;;;;;;4931615;28;20041;-65
2023/10/31 13:38:30;;;;;;;8.73;1.15;;;;;;;;;;4931910;28;20133;-65
2023/10/31 13:40:56;;;;;;;9.73;1.55;;;;;;;;;;4930733;28;20596;-65
2023/10/31 13:43:22;;;;;;;5.55;1.50;;;;;;;;;;4929475;28;20035;-65
2023/10/31 13:45:48;;;;;;;8.57;2.45;;;;;;;;;;4930434;28;20039;-65
2023/10/31 13:48:14;;;;;;;11.95;5.20;;;;;;;;;;4930851;28;20027;-65
2023/10/31 13:50:41;;;;;;;7.60;2.13;;;;;;;;;;4930796;28;21095;-65
2023/10/31 13:53:07;;;;;;;7.18;2.50;;;;;;;;;;4931538;28;20837;-65
2023/10/31 13:55:33;;;;;;;6.15;1.58;;;;;;;;;;4930480;28;20030;-65
2023/10/31 13:58:00;;;;;;;7.35;1.10;;;;;;;;;;4930521;28;20027;-65
2023/10/31 14:00:26;;;;;;;9.48;1.00;;;;;;;;;;4930791;28;20054;-65
2023/10/31 14:02:52;;;;;;;7.15;1.08;;;;;;;;;;4930523;28;20038;-65
2023/10/31 14:05:18;;;;;;;6.47;1.10;;;;;;;;;;4945017;28;20660;-65
2023/10/31 14:07:46;;;;;;;4.28;0.80;;;;;;;;;;4928676;28;20113;-67
2023/10/31 14:10:12;;;;;;;9.48;1.25;;;;;;;;;;4930654;28;21961;-65
2023/10/31 14:12:38;;;;;;;4.90;0.88;;;;;;;;;;4931340;28;20754;-65
2023/10/31 14:15:04;;;;;;;4.30;0.70;;;;;;;;;;4930100;28;20098;-65
2023/10/31 14:17:30;;;;;;;4.13;0.80;;;;;;;;;;4930431;28;20085;-65
2023/10/31 14:19:56;;;;;;;4.55;0.70;;;;;;;;;;4930204;28;20042;-65
2023/10/31 14:22:23;;;;;;;6.85;1.15;;;;;;;;;;4930763;28;20057;-65
2023/10/31 14:24:49;;;;;;;4.85;0.85;;;;;;;;;;4929685;28;20043;-65
2023/10/31 14:27:15;;;;;;;3.88;0.55;;;;;;;;;;4931064;28;20035;-65
2023/10/31 14:29:41;;;;;;;6.43;1.30;;;;;;;;;;4930695;28;20031;-65
2023/10/31 14:32:08;;;;;;;8.38;1.10;;;;;;;;;;4930157;28;20031;-65
2023/10/31 14:34:34;;;;;;;6.05;1.50;;;;;;;;;;4931291;28;20039;-65
2023/10/31 14:37:00;;;;;;;4.47;1.13;;;;;;;;;;4931126;28;20050;-65
2023/10/31 14:39:26;;;;;;;4.07;1.25;;;;;;;;;;4945482;28;20039;-65